Time;durP1;ratioP1;P1;durP2;ratioP2;P2;SDS_P1;SDS_P2;PMS_P1;PMS_P2;Temp;Humidity;BMP_temperature;BMP_pressure;BME280_temperature;BME280_humidity;BME280_pressure;Samples;Min_cycle;Max_cycle;Signal;HPM_P1;HPM_P2
2022/04/18 00:00:36;;;;;;;16.48;10.20;;;8.00;91.20;;;;;;5047819;28;20122;-73
2022/04/18 00:03:04;;;;;;;14.95;11.15;;;7.90;91.10;;;;;;5049687;28;20115;-72
2022/04/18 00:05:31;;;;;;;16.77;10.38;;;7.90;91.50;;;;;;5050026;28;20041;-73
2022/04/18 00:07:56;;;;;;;18.50;10.77;;;7.80;92.30;;;;;;5051331;28;20125;-72
2022/04/18 00:10:22;;;;;;;18.40;12.23;;;7.80;92.70;;;;;;5049671;28;20139;-72
2022/04/18 00:12:48;;;;;;;16.25;10.93;;;7.70;92.90;;;;;;5051339;28;20496;-73
2022/04/18 00:15:13;;;;;;;16.00;11.40;;;7.70;93.10;;;;;;5047235;28;20048;-72
2022/04/18 00:17:39;;;;;;;19.27;11.18;;;7.70;93.60;;;;;;5049435;28;20099;-73
2022/04/18 00:20:06;;;;;;;20.23;12.10;;;7.70;93.70;;;;;;5051343;28;20072;-72
2022/04/18 00:22:32;;;;;;;20.20;11.52;;;7.60;94.10;;;;;;5049639;28;20041;-72
2022/04/18 00:24:58;;;;;;;17.83;11.50;;;7.60;94.60;;;;;;5049727;28;20106;-73
2022/04/18 00:27:25;;;;;;;17.08;10.95;;;7.60;94.80;;;;;;5051379;28;20704;-72
2022/04/18 00:29:51;;;;;;;17.48;11.48;;;7.50;95.30;;;;;;5047486;28;20041;-73
2022/04/18 00:32:17;;;;;;;17.70;11.10;;;7.50;95.40;;;;;;5051167;28;20048;-73
2022/04/18 00:34:43;;;;;;;17.75;10.88;;;7.50;96.00;;;;;;5050757;28;20484;-72
2022/04/18 00:37:09;;;;;;;17.83;11.77;;;7.50;96.60;;;;;;5050437;28;20451;-72
2022/04/18 00:39:35;;;;;;;18.42;11.32;;;7.40;96.60;;;;;;5050291;28;20056;-72
2022/04/18 00:42:00;;;;;;;21.67;10.75;;;7.40;97.20;;;;;;5044775;28;20037;-72
2022/04/18 00:44:26;;;;;;;18.02;11.00;;;7.30;97.60;;;;;;5048696;28;20049;-72
2022/04/18 00:46:52;;;;;;;16.60;11.35;;;7.30;97.70;;;;;;5051119;28;20443;-72
2022/04/18 00:49:18;;;;;;;17.40;11.43;;;7.30;97.80;;;;;;5049508;28;20044;-72
2022/04/18 00:51:44;;;;;;;18.30;11.85;;;7.30;98.10;;;;;;5054359;28;20045;-73
2022/04/18 00:54:13;;;;;;;16.92;10.77;;;7.20;98.40;;;;;;5049101;28;20395;-73
2022/04/18 00:56:40;;;;;;;21.67;12.23;;;7.20;99.00;;;;;;5049961;28;20044;-72
2022/04/18 00:59:06;;;;;;;17.30;11.10;;;7.10;99.30;;;;;;5050245;28;20060;-72
2022/04/18 01:01:32;;;;;;;18.13;12.15;;;7.10;99.50;;;;;;5049183;28;20136;-72
2022/04/18 01:04:00;;;;;;;18.10;11.15;;;7.10;99.50;;;;;;5049774;28;20449;-72
2022/04/18 01:06:25;;;;;;;16.23;11.50;;;7.00;99.90;;;;;;5048802;28;20048;-72
2022/04/18 01:08:52;;;;;;;19.52;12.00;;;7.00;99.90;;;;;;5054220;28;20119;-72
2022/04/18 01:11:18;;;;;;;17.88;11.27;;;7.00;99.90;;;;;;5044621;28;20044;-73
2022/04/18 01:13:46;;;;;;;15.93;10.65;;;6.90;99.90;;;;;;5049567;28;20118;-72
2022/04/18 01:16:12;;;;;;;15.27;10.82;;;6.90;99.90;;;;;;5049463;28;20504;-72
2022/04/18 01:18:38;;;;;;;18.05;12.60;;;6.90;99.90;;;;;;5048894;28;20415;-72
2022/04/18 01:21:09;;;;;;;18.02;11.20;;;6.80;99.90;;;;;;5048661;28;20539;-72
2022/04/18 01:23:35;;;;;;;17.38;11.30;;;6.80;99.90;;;;;;5048632;28;20126;-72
2022/04/18 01:29:03;;;;;;;18.27;12.02;;;6.70;99.90;;;;;;5048508;28;20049;-72
2022/04/18 01:31:39;;;;;;;18.35;12.10;;;6.60;99.90;;;;;;5048922;28;20045;-72
2022/04/18 01:34:06;;;;;;;19.42;11.60;;;6.50;99.90;;;;;;5050294;28;20131;-72
2022/04/18 01:36:35;;;;;;;18.80;12.07;;;6.50;99.90;;;;;;5048219;28;20124;-72
2022/04/18 01:39:00;;;;;;;17.08;11.48;;;6.40;99.90;;;;;;5043936;28;20129;-72
2022/04/18 01:41:27;;;;;;;18.02;11.43;;;6.40;99.90;;;;;;5043385;28;20040;-72
2022/04/18 01:43:53;;;;;;;18.42;11.93;;;6.40;99.90;;;;;;5050055;28;20041;-72
2022/04/18 01:46:19;;;;;;;20.08;12.52;;;6.30;99.90;;;;;;5049992;28;20396;-72
2022/04/18 01:48:47;;;;;;;17.88;11.52;;;6.30;99.90;;;;;;5049389;28;20051;-72
2022/04/18 01:51:12;;;;;;;17.73;11.15;;;6.30;99.90;;;;;;5052011;28;20041;-72
2022/04/18 01:53:38;;;;;;;20.65;12.93;;;6.30;99.90;;;;;;5044137;28;20041;-72
2022/04/18 01:56:04;;;;;;;18.58;12.38;;;6.30;99.90;;;;;;5051804;28;20045;-72
2022/04/18 01:58:29;;;;;;;19.08;11.77;;;6.30;99.90;;;;;;5052237;28;20061;-73
2022/04/18 02:00:56;;;;;;;19.33;12.63;;;6.20;99.90;;;;;;5053888;28;20040;-72
2022/04/18 02:03:22;;;;;;;21.15;11.98;;;6.20;99.90;;;;;;5053747;28;20111;-72
2022/04/18 02:05:49;;;;;;;17.55;12.07;;;6.20;99.90;;;;;;5053972;28;20465;-72
2022/04/18 02:08:15;;;;;;;19.02;11.93;;;6.20;99.90;;;;;;5047707;28;20057;-72
2022/04/18 02:10:40;;;;;;;18.67;12.35;;;6.10;99.90;;;;;;5052643;28;20166;-72
2022/04/18 02:13:06;;;;;;;22.35;12.82;;;6.10;99.90;;;;;;5053508;28;20053;-72
2022/04/18 02:15:32;;;;;;;17.60;11.68;;;6.10;99.90;;;;;;5052812;28;20119;-72
2022/04/18 02:17:58;;;;;;;18.67;12.32;;;6.00;99.90;;;;;;5052538;28;20095;-72
2022/04/18 02:20:24;;;;;;;23.50;13.02;;;6.00;99.90;;;;;;5052119;28;20512;-72
2022/04/18 02:22:49;;;;;;;19.15;12.25;;;6.00;99.90;;;;;;5053238;28;20094;-72
2022/04/18 02:25:16;;;;;;;20.35;12.10;;;5.90;99.90;;;;;;5053510;28;20045;-72
2022/04/18 02:27:41;;;;;;;19.33;12.93;;;5.90;99.90;;;;;;5052495;28;20442;-72
2022/04/18 02:30:09;;;;;;;19.10;12.13;;;5.90;99.90;;;;;;5051450;28;20044;-72
2022/04/18 02:32:47;;;;;;;21.00;12.18;;;5.80;99.90;;;;;;5053113;28;20048;-72
2022/04/18 02:35:13;;;;;;;17.50;11.75;;;5.80;99.90;;;;;;5051971;28;20566;-72
2022/04/18 02:37:39;;;;;;;21.00;13.10;;;5.70;99.90;;;;;;5051838;28;20083;-72
2022/04/18 02:40:06;;;;;;;19.45;12.32;;;5.70;99.90;;;;;;5053693;28;20466;-72
2022/04/18 02:42:32;;;;;;;19.40;11.55;;;5.70;99.90;;;;;;5048518;28;20076;-72
2022/04/18 02:44:58;;;;;;;19.10;11.90;;;5.70;99.90;;;;;;5052472;28;20057;-72
2022/04/18 02:47:23;;;;;;;19.85;11.95;;;5.70;99.90;;;;;;5052857;28;20041;-72
2022/04/18 02:49:50;;;;;;;17.67;11.82;;;5.60;99.90;;;;;;5053240;28;20036;-72
2022/04/18 02:52:17;;;;;;;20.70;11.77;;;5.60;99.90;;;;;;5056914;28;20053;-72
2022/04/18 02:54:44;;;;;;;20.80;12.40;;;5.60;99.90;;;;;;5051128;28;20542;-72
2022/04/18 02:57:11;;;;;;;18.70;12.23;;;5.60;99.90;;;;;;5053581;28;20060;-72
2022/04/18 02:59:37;;;;;;;21.20;12.65;;;5.50;99.90;;;;;;5050201;28;20061;-72
2022/04/18 03:02:03;;;;;;;18.75;11.77;;;5.50;99.90;;;;;;5051885;28;20041;-72
2022/04/18 03:04:29;;;;;;;19.45;11.38;;;5.50;99.90;;;;;;5052111;28;20045;-72
2022/04/18 03:06:55;;;;;;;20.88;11.90;;;5.50;99.90;;;;;;5051898;28;20048;-72
2022/04/18 03:09:21;;;;;;;19.58;12.95;;;5.50;99.90;;;;;;5047393;28;20048;-72
2022/04/18 03:11:46;;;;;;;21.65;12.48;;;5.50;99.90;;;;;;5050733;28;20044;-72
2022/04/18 03:14:12;;;;;;;19.45;12.32;;;5.50;99.90;;;;;;5052119;28;20167;-72
2022/04/18 03:16:38;;;;;;;20.95;11.98;;;5.40;99.90;;;;;;5051003;28;20088;-72
2022/04/18 03:19:03;;;;;;;19.92;11.80;;;5.40;99.90;;;;;;5052318;28;20373;-72
2022/04/18 03:21:29;;;;;;;19.80;12.02;;;5.40;99.90;;;;;;5049264;28;20037;-72
2022/04/18 03:23:55;;;;;;;18.15;11.85;;;5.40;99.90;;;;;;5052491;28;20045;-72
2022/04/18 03:26:21;;;;;;;21.23;12.48;;;5.40;99.90;;;;;;5052225;28;20037;-72
2022/04/18 03:28:46;;;;;;;18.90;11.95;;;5.30;99.90;;;;;;5050907;28;20064;-72
2022/04/18 03:31:12;;;;;;;16.42;10.68;;;5.30;99.90;;;;;;5052654;28;20048;-72
2022/04/18 03:33:38;;;;;;;18.58;11.63;;;5.30;99.90;;;;;;5051322;28;20481;-72
2022/04/18 03:41:35;;;;;;;21.85;12.18;;;5.30;99.90;;;;;;5046905;28;20135;-72
2022/04/18 03:44:00;;;;;;;17.33;10.60;;;5.30;99.90;;;;;;5050848;28;20132;-72
2022/04/18 03:46:29;;;;;;;19.17;11.23;;;5.30;99.90;;;;;;5051591;28;20584;-72
2022/04/18 03:48:54;;;;;;;17.70;11.60;;;5.30;99.90;;;;;;5030305;28;20131;-72
2022/04/18 03:51:20;;;;;;;20.95;11.70;;;5.30;99.90;;;;;;5054019;28;20130;-72
2022/04/18 03:53:47;;;;;;;18.98;11.75;;;5.30;99.90;;;;;;5051159;28;20079;-72
2022/04/18 03:56:12;;;;;;;17.83;11.63;;;5.30;99.90;;;;;;5050761;28;20049;-72
2022/04/18 03:58:39;;;;;;;19.70;11.48;;;5.30;99.90;;;;;;5050328;28;20055;-72
2022/04/18 04:01:05;;;;;;;22.30;12.23;;;5.30;99.90;;;;;;5051032;28;20397;-72
2022/04/18 04:03:31;;;;;;;20.50;11.43;;;5.30;99.90;;;;;;5047164;28;20049;-72
2022/04/18 04:05:57;;;;;;;17.65;11.30;;;5.30;99.90;;;;;;5050292;28;20041;-72
2022/04/18 04:08:23;;;;;;;15.95;11.00;;;5.30;99.90;;;;;;5043043;28;20036;-72
2022/04/18 04:10:50;;;;;;;19.90;12.30;;;5.30;99.90;;;;;;5051553;28;20400;-72
2022/04/18 04:13:18;;;;;;;23.35;12.73;;;5.30;99.90;;;;;;5051596;28;20045;-72
2022/04/18 04:15:44;;;;;;;19.77;11.52;;;5.20;99.90;;;;;;5050838;28;20045;-72
2022/04/18 04:18:10;;;;;;;19.95;12.20;;;5.20;99.90;;;;;;5046085;28;20389;-72
2022/04/18 04:20:35;;;;;;;19.13;11.50;;;5.20;99.90;;;;;;5049827;28;20044;-72
2022/04/18 04:23:01;;;;;;;21.73;12.00;;;5.20;99.90;;;;;;5050938;28;20139;-72
2022/04/18 04:25:27;;;;;;;18.08;11.73;;;5.20;99.90;;;;;;5050933;28;20045;-72
2022/04/18 04:27:52;;;;;;;22.92;12.68;;;5.20;99.90;;;;;;5050655;28;20041;-72
2022/04/18 04:30:18;;;;;;;17.00;11.20;;;5.20;99.90;;;;;;5050801;28;20132;-72
2022/04/18 04:32:44;;;;;;;19.42;12.27;;;5.20;99.90;;;;;;5046657;28;20037;-72
2022/04/18 04:35:09;;;;;;;23.33;11.38;;;5.20;99.90;;;;;;5050833;28;20072;-72
2022/04/18 04:37:35;;;;;;;21.38;12.48;;;5.20;99.90;;;;;;5050312;28;20044;-73
2022/04/18 04:40:01;;;;;;;24.38;12.80;;;5.20;99.90;;;;;;5051221;28;20072;-72
2022/04/18 04:42:26;;;;;;;21.15;12.68;;;5.20;99.90;;;;;;5046142;28;20094;-72
2022/04/18 04:44:52;;;;;;;19.50;11.85;;;5.20;99.90;;;;;;5047963;28;20473;-72
2022/04/18 04:47:17;;;;;;;18.23;10.73;;;5.20;99.90;;;;;;5047491;28;20073;-72
2022/04/18 04:49:43;;;;;;;17.20;11.27;;;5.20;99.90;;;;;;5052099;28;20102;-72
2022/04/18 04:52:10;;;;;;;20.98;11.77;;;5.20;99.90;;;;;;5054108;28;20039;-72
2022/04/18 04:54:36;;;;;;;17.13;11.35;;;5.30;99.90;;;;;;5052545;28;20048;-72
2022/04/18 04:57:01;;;;;;;18.48;10.98;;;5.30;99.90;;;;;;5049068;28;20048;-72
2022/04/18 04:59:27;;;;;;;21.17;11.20;;;5.30;99.90;;;;;;5045168;28;20096;-72
2022/04/18 05:01:53;;;;;;;19.20;11.48;;;5.30;99.90;;;;;;5045183;28;20059;-72
2022/04/18 05:04:18;;;;;;;20.83;12.07;;;5.30;99.90;;;;;;5044946;28;20484;-72
2022/04/18 05:06:44;;;;;;;17.20;10.48;;;5.30;99.90;;;;;;5047362;28;20052;-72
2022/04/18 05:09:10;;;;;;;18.17;10.93;;;5.40;99.90;;;;;;5046543;28;20048;-72
2022/04/18 05:11:36;;;;;;;18.10;10.95;;;5.40;99.90;;;;;;5045614;28;20065;-72
2022/04/18 05:14:01;;;;;;;17.75;11.25;;;5.40;99.90;;;;;;5048830;28;20037;-72
2022/04/18 05:16:27;;;;;;;21.08;10.88;;;5.40;99.90;;;;;;5044011;28;20067;-72
2022/04/18 05:18:52;;;;;;;15.60;9.88;;;5.50;99.90;;;;;;5045215;28;20099;-72
2022/04/18 05:21:18;;;;;;;17.98;10.30;;;5.50;99.90;;;;;;5046287;28;20047;-72
2022/04/18 05:23:44;;;;;;;14.27;9.60;;;5.50;99.90;;;;;;5043532;28;20045;-72
2022/04/18 05:26:09;;;;;;;14.98;9.68;;;5.50;99.90;;;;;;5044621;28;20131;-72
2022/04/18 05:28:35;;;;;;;17.98;10.23;;;5.50;99.90;;;;;;5044057;28;20049;-72
2022/04/18 05:31:01;;;;;;;14.65;9.75;;;5.60;99.90;;;;;;5046055;28;20484;-72
2022/04/18 05:33:27;;;;;;;17.17;11.30;;;5.60;99.90;;;;;;5043680;28;20501;-72
2022/04/18 05:35:52;;;;;;;15.45;9.50;;;5.60;99.90;;;;;;5046043;28;20492;-72
2022/04/18 05:38:18;;;;;;;14.50;9.38;;;5.70;99.90;;;;;;5046371;28;20168;-72
2022/04/18 05:40:43;;;;;;;14.07;9.68;;;5.70;99.90;;;;;;5043147;28;20127;-70
2022/04/18 05:43:09;;;;;;;17.45;10.20;;;5.80;99.90;;;;;;5049348;28;20102;-71
2022/04/18 05:45:38;;;;;;;19.13;10.35;;;5.80;99.90;;;;;;5046903;28;20403;-71
2022/04/18 05:48:04;;;;;;;17.42;10.15;;;5.90;99.90;;;;;;5046653;28;20033;-71
2022/04/18 05:50:30;;;;;;;18.60;10.75;;;6.00;99.90;;;;;;5048266;28;20554;-72
2022/04/18 05:52:56;;;;;;;16.75;10.88;;;6.00;99.90;;;;;;5042178;28;20041;-71
2022/04/18 05:55:22;;;;;;;17.27;9.73;;;6.10;99.90;;;;;;5037616;28;20052;-71
2022/04/18 05:57:49;;;;;;;16.95;10.55;;;6.10;99.90;;;;;;5039212;28;20124;-71
2022/04/18 06:00:15;;;;;;;18.30;10.77;;;6.20;99.90;;;;;;5043909;28;20063;-72
2022/04/18 06:02:41;;;;;;;16.15;10.45;;;6.20;99.90;;;;;;5039718;28;20178;-71
2022/04/18 06:05:07;;;;;;;18.75;10.70;;;6.30;99.90;;;;;;5046735;28;20120;-71
2022/04/18 06:07:34;;;;;;;18.33;10.63;;;6.40;99.90;;;;;;5042010;28;20118;-71
2022/04/18 06:10:00;;;;;;;15.75;10.80;;;6.40;99.90;;;;;;5045176;28;20051;-71
2022/04/18 06:12:26;;;;;;;17.80;10.82;;;6.50;99.90;;;;;;5054820;28;20049;-71
2022/04/18 06:14:52;;;;;;;16.60;10.23;;;6.50;99.90;;;;;;5044865;28;20098;-71
2022/04/18 06:17:18;;;;;;;18.25;10.32;;;6.60;99.90;;;;;;5047349;28;20037;-72
2022/04/18 06:19:43;;;;;;;16.77;10.98;;;6.60;99.90;;;;;;5048952;28;20043;-72
2022/04/18 06:22:09;;;;;;;17.63;10.85;;;6.70;99.90;;;;;;5044387;28;20106;-72
2022/04/18 06:24:35;;;;;;;16.98;11.02;;;6.70;99.90;;;;;;5048690;28;20120;-72
2022/04/18 06:27:00;;;;;;;19.05;11.23;;;6.80;99.90;;;;;;5048618;28;20530;-72
2022/04/18 06:29:26;;;;;;;18.17;11.32;;;6.90;99.90;;;;;;5047910;28;20777;-72
2022/04/18 06:31:53;;;;;;;19.13;11.85;;;7.00;99.90;;;;;;5047956;28;20033;-71
2022/04/18 06:34:20;;;;;;;17.33;10.55;;;7.10;99.90;;;;;;5048539;28;20106;-71
2022/04/18 06:36:45;;;;;;;15.20;10.05;;;7.20;99.90;;;;;;5047487;28;20388;-71
2022/04/18 06:39:11;;;;;;;17.52;10.75;;;7.30;99.90;;;;;;5042470;28;20392;-71
2022/04/18 06:41:36;;;;;;;16.90;10.25;;;7.50;99.90;;;;;;5045997;28;20040;-71
2022/04/18 06:44:02;;;;;;;14.13;9.50;;;7.50;99.90;;;;;;5047566;28;20546;-71
2022/04/18 06:46:28;;;;;;;16.25;10.45;;;7.60;99.90;;;;;;5052640;28;20387;-71
2022/04/18 06:48:53;;;;;;;15.60;10.50;;;7.70;99.90;;;;;;5051959;28;20523;-71
2022/04/18 06:51:19;;;;;;;17.50;10.30;;;7.70;99.90;;;;;;5055719;28;20051;-71
2022/04/18 06:53:45;;;;;;;17.00;10.50;;;7.90;99.90;;;;;;5045909;28;20135;-71
2022/04/18 06:58:55;;;;;;;15.15;9.82;;;8.10;99.90;;;;;;5047689;28;20393;-71
2022/04/18 07:01:20;;;;;;;18.35;10.05;;;8.20;99.90;;;;;;5052477;28;20049;-72
2022/04/18 07:03:46;;;;;;;13.80;8.90;;;8.30;99.90;;;;;;5046073;28;20048;-72
2022/04/18 07:06:11;;;;;;;14.27;9.25;;;8.40;99.90;;;;;;5050907;28;20559;-72
2022/04/18 07:08:38;;;;;;;15.60;9.57;;;8.80;99.90;;;;;;5045590;28;20037;-72
2022/04/18 07:11:04;;;;;;;14.32;8.48;;;8.60;99.90;;;;;;5045436;28;20037;-72
2022/04/18 07:13:30;;;;;;;13.13;7.53;;;8.70;99.90;;;;;;5048410;28;20040;-72
2022/04/18 07:15:55;;;;;;;14.00;8.23;;;8.80;99.90;;;;;;5047903;28;20098;-72
2022/04/18 07:18:21;;;;;;;13.20;8.02;;;8.90;99.90;;;;;;5048182;28;20087;-72
2022/04/18 07:20:47;;;;;;;14.55;8.38;;;9.00;99.90;;;;;;5045663;28;20037;-71
2022/04/18 07:23:12;;;;;;;14.27;7.78;;;9.10;99.90;;;;;;5045021;28;20076;-73
2022/04/18 07:25:38;;;;;;;14.35;7.75;;;9.10;99.90;;;;;;5046446;28;20044;-75
2022/04/18 07:28:04;;;;;;;12.63;8.35;;;9.20;99.90;;;;;;5047199;28;20041;-74
2022/04/18 07:30:30;;;;;;;15.38;8.15;;;9.30;99.90;;;;;;5034233;28;20488;-70
2022/04/18 07:32:56;;;;;;;14.43;8.93;;;9.30;99.90;;;;;;5043558;28;20056;-71
2022/04/18 07:35:22;;;;;;;13.50;8.20;;;9.40;99.90;;;;;;5047792;28;20041;-73
2022/04/18 07:40:31;;;;;;;13.13;8.23;;;9.50;99.90;;;;;;5050532;28;20049;-73
2022/04/18 07:42:57;;;;;;;15.10;8.30;;;9.60;99.90;;;;;;5046119;28;20033;-73
2022/04/18 07:45:23;;;;;;;15.48;8.50;;;9.70;99.90;;;;;;5049668;28;20041;-73
2022/04/18 07:47:51;;;;;;;13.23;7.88;;;9.80;99.90;;;;;;5047637;28;20044;-73
2022/04/18 07:50:17;;;;;;;12.32;7.70;;;9.90;99.90;;;;;;5054217;28;20197;-73
2022/04/18 07:52:42;;;;;;;14.73;7.97;;;10.00;99.60;;;;;;5049567;28;20533;-73
2022/04/18 07:55:08;;;;;;;13.35;8.60;;;10.10;99.50;;;;;;5049674;28;20037;-73
2022/04/18 07:57:34;;;;;;;13.02;7.60;;;10.10;99.60;;;;;;5050455;28;20433;-73
2022/04/18 07:59:59;;;;;;;13.32;8.13;;;10.20;99.30;;;;;;5050211;28;20420;-73
2022/04/18 08:02:25;;;;;;;13.35;8.30;;;10.30;98.80;;;;;;5051608;28;20041;-73
2022/04/18 08:04:50;;;;;;;12.98;8.10;;;10.40;98.70;;;;;;5051683;28;20092;-73
2022/04/18 08:07:16;;;;;;;12.10;7.80;;;10.50;98.40;;;;;;5050127;28;20048;-73
2022/04/18 08:09:41;;;;;;;12.27;7.45;;;10.60;97.00;;;;;;5051308;28;20033;-73
2022/04/18 08:12:11;;;;;;;12.45;7.50;;;10.70;97.40;;;;;;5051641;28;20037;-73
2022/04/18 08:14:37;;;;;;;13.90;8.23;;;10.80;97.50;;;;;;5050684;28;20049;-73
2022/04/18 08:17:03;;;;;;;15.25;7.38;;;10.90;97.20;;;;;;5049941;28;20132;-73
2022/04/18 08:19:29;;;;;;;11.45;6.75;;;11.00;97.30;;;;;;5051356;28;20120;-73
2022/04/18 08:21:55;;;;;;;12.23;7.50;;;11.20;96.60;;;;;;5050757;28;20080;-73
2022/04/18 08:24:21;;;;;;;11.68;7.40;;;11.30;96.30;;;;;;5051173;28;20485;-73
2022/04/18 08:26:47;;;;;;;12.50;7.93;;;11.50;95.90;;;;;;5051108;28;20103;-73
2022/04/18 08:29:13;;;;;;;10.10;6.32;;;11.60;95.70;;;;;;5051171;28;20041;-73
2022/04/18 08:31:38;;;;;;;13.88;6.90;;;11.70;95.90;;;;;;5049522;28;20551;-73
2022/04/18 08:34:04;;;;;;;11.82;6.78;;;11.90;94.70;;;;;;5050762;28;20053;-73
2022/04/18 08:36:30;;;;;;;11.13;6.53;;;12.10;95.00;;;;;;5050960;28;20080;-73
2022/04/18 08:38:55;;;;;;;10.88;5.97;;;12.20;94.50;;;;;;5053935;28;20045;-73
2022/04/18 08:41:24;;;;;;;12.05;6.97;;;12.40;93.50;;;;;;5046542;28;20087;-74
2022/04/18 08:43:52;;;;;;;9.98;6.30;;;12.60;93.00;;;;;;5049996;28;20558;-74
2022/04/18 08:46:17;;;;;;;9.15;5.38;;;12.80;92.60;;;;;;5051048;28;20477;-74
2022/04/18 08:54:15;;;;;;;9.70;5.80;;;13.40;90.40;;;;;;5049027;28;20311;-74
2022/04/18 08:56:41;;;;;;;9.13;5.45;;;13.60;90.40;;;;;;5049009;28;20489;-74
2022/04/18 08:59:06;;;;;;;11.82;5.15;;;13.80;87.60;;;;;;5049104;28;20053;-74
2022/04/18 09:01:33;;;;;;;12.45;5.43;;;14.00;85.30;;;;;;5050774;28;20076;-74
2022/04/18 09:03:59;;;;;;;14.95;5.15;;;14.20;83.90;;;;;;5049153;28;20376;-74
2022/04/18 09:06:25;;;;;;;9.80;5.43;;;14.30;82.50;;;;;;5041066;28;20481;-74
2022/04/18 09:08:56;;;;;;;14.05;5.35;;;14.50;78.80;;;;;;5051164;28;20045;-74
2022/04/18 09:11:37;;;;;;;9.75;4.93;;;14.60;77.00;;;;;;5050024;28;20033;-74
2022/04/18 09:14:08;;;;;;;10.80;5.75;;;14.70;77.80;;;;;;5050448;28;20500;-74
2022/04/18 09:16:37;;;;;;;11.13;5.95;;;14.80;77.10;;;;;;5042541;28;20052;-74
2022/04/18 09:19:05;;;;;;;8.82;5.07;;;14.90;77.40;;;;;;5050312;28;20128;-74
2022/04/18 09:21:31;;;;;;;8.60;5.18;;;15.00;76.00;;;;;;5049994;28;20055;-74
2022/04/18 09:23:57;;;;;;;14.25;5.63;;;15.10;75.20;;;;;;5050844;28;20072;-74
2022/04/18 09:26:23;;;;;;;8.40;5.10;;;15.20;74.50;;;;;;5050034;28;20122;-74
2022/04/18 09:28:49;;;;;;;7.82;5.50;;;15.30;76.50;;;;;;5050334;28;20084;-74
2022/04/18 09:31:19;;;;;;;11.60;5.72;;;15.50;75.10;;;;;;5050200;28;20429;-74
2022/04/18 09:33:52;;;;;;;10.00;5.13;;;15.70;74.10;;;;;;5050319;28;20055;-74
2022/04/18 09:36:20;;;;;;;8.18;5.60;;;15.80;72.80;;;;;;5049321;28;20064;-74
2022/04/18 09:38:54;;;;;;;8.68;4.90;;;16.00;73.30;;;;;;5047745;28;20041;-73
2022/04/18 09:41:31;;;;;;;7.72;5.18;;;16.10;73.20;;;;;;5045463;28;20564;-74
2022/04/18 09:43:57;;;;;;;10.10;5.20;;;16.20;70.30;;;;;;5050152;28;20374;-74
2022/04/18 09:46:23;;;;;;;9.60;4.57;;;16.40;68.90;;;;;;5049691;28;20112;-74
2022/04/18 09:48:51;;;;;;;8.45;4.15;;;16.50;68.40;;;;;;5047273;28;20040;-74
2022/04/18 09:51:29;;;;;;;8.02;5.00;;;16.60;68.70;;;;;;5056618;28;20063;-74
2022/04/18 09:53:57;;;;;;;6.82;4.07;;;16.60;66.00;;;;;;5049676;28;20119;-74
2022/04/18 09:56:29;;;;;;;9.55;4.28;;;16.70;66.50;;;;;;5050001;28;20508;-74
2022/04/18 09:58:56;;;;;;;6.30;3.70;;;16.90;67.30;;;;;;5043007;28;20508;-74
2022/04/18 10:01:22;;;;;;;6.78;3.95;;;17.00;66.60;;;;;;5049592;28;20123;-74
2022/04/18 10:03:52;;;;;;;7.43;4.28;;;17.00;66.70;;;;;;5050016;28;20118;-74
2022/04/18 10:06:19;;;;;;;8.57;4.70;;;17.20;66.20;;;;;;5048895;28;20048;-74
2022/04/18 10:08:45;;;;;;;9.55;4.82;;;17.30;65.00;;;;;;5047654;28;20049;-74
2022/04/18 10:11:14;;;;;;;6.82;4.20;;;17.40;66.20;;;;;;5050202;28;20098;-74
2022/04/18 10:13:39;;;;;;;8.43;4.72;;;17.50;65.00;;;;;;5048792;28;20496;-74
2022/04/18 10:16:06;;;;;;;8.30;4.32;;;17.70;64.50;;;;;;5050428;28;20055;-74
2022/04/18 10:18:50;;;;;;;8.05;3.83;;;17.80;63.00;;;;;;5053819;28;20052;-74
2022/04/18 10:21:31;;;;;;;8.30;4.72;;;17.90;61.60;;;;;;5046543;28;20140;-74
2022/04/18 10:24:28;;;;;;;7.35;4.43;;;18.00;60.10;;;;;;5053815;28;20040;-74
2022/04/18 10:27:05;;;;;;;10.55;5.03;;;18.00;61.00;;;;;;5052726;28;20063;-74
2022/04/18 10:29:38;;;;;;;7.22;4.03;;;18.10;61.60;;;;;;5053275;28;20069;-74
2022/04/18 10:32:07;;;;;;;7.63;3.58;;;18.20;61.70;;;;;;5052901;28;20500;-74
2022/04/18 10:34:34;;;;;;;6.00;3.35;;;18.30;61.70;;;;;;5053169;28;20052;-74
2022/04/18 10:37:02;;;;;;;6.22;3.97;;;18.50;61.30;;;;;;5053224;28;20072;-74
2022/04/18 10:39:36;;;;;;;6.25;4.43;;;18.60;60.60;;;;;;5053427;28;20389;-74
2022/04/18 10:42:21;;;;;;;8.20;5.00;;;18.80;60.70;;;;;;5048219;28;20033;-74
2022/04/18 10:45:19;;;;;;;8.60;5.05;;;18.90;59.20;;;;;;5052740;28;20488;-74
2022/04/18 10:48:10;;;;;;;7.15;3.45;;;19.00;58.50;;;;;;5050142;28;20047;-74
2022/04/18 10:50:41;;;;;;;7.70;4.53;;;19.20;56.70;;;;;;5049213;28;20052;-74
2022/04/18 10:53:15;;;;;;;8.05;4.20;;;19.30;58.20;;;;;;5052776;28;20100;-74
2022/04/18 10:55:53;;;;;;;6.47;3.80;;;19.40;58.80;;;;;;5053100;28;20049;-74
2022/04/18 10:58:23;;;;;;;6.78;3.58;;;19.50;57.40;;;;;;5046379;28;20045;-74
2022/04/18 11:00:52;;;;;;;7.70;4.40;;;19.60;56.10;;;;;;5052568;28;20049;-74
2022/04/18 11:03:37;;;;;;;8.77;5.35;;;19.60;55.80;;;;;;5052659;28;20041;-74
2022/04/18 11:06:17;;;;;;;8.88;5.18;;;19.70;57.90;;;;;;5052977;28;20076;-74
2022/04/18 11:09:03;;;;;;;7.18;4.68;;;19.80;58.50;;;;;;5052007;28;20095;-74
2022/04/18 11:12:01;;;;;;;6.95;4.57;;;19.90;55.20;;;;;;5048243;28;20084;-74
2022/04/18 11:14:48;;;;;;;7.45;4.35;;;20.00;53.80;;;;;;5045777;28;20057;-74
2022/04/18 11:17:27;;;;;;;6.93;4.13;;;20.10;53.20;;;;;;5052203;28;20064;-74
2022/04/18 11:19:53;;;;;;;6.68;3.78;;;20.10;52.10;;;;;;5051134;28;20048;-74
2022/04/18 11:22:23;;;;;;;5.47;3.47;;;20.10;53.40;;;;;;5052773;28;20047;-74
2022/04/18 11:24:48;;;;;;;7.18;3.90;;;20.10;51.60;;;;;;5050676;28;20041;-74
2022/04/18 11:27:15;;;;;;;7.22;3.80;;;20.10;52.10;;;;;;5050535;28;20063;-74
2022/04/18 11:29:49;;;;;;;6.05;3.40;;;20.10;53.10;;;;;;5050819;28;20407;-73
2022/04/18 11:32:17;;;;;;;6.80;3.58;;;20.10;51.60;;;;;;5049872;28;20753;-74
2022/04/18 11:34:48;;;;;;;5.10;3.13;;;20.30;50.70;;;;;;5050554;28;20378;-73
2022/04/18 11:37:25;;;;;;;6.18;3.05;;;20.30;48.40;;;;;;5052077;28;20045;-74
2022/04/18 11:39:53;;;;;;;8.57;3.17;;;20.30;48.70;;;;;;5050464;28;20508;-74
2022/04/18 11:42:24;;;;;;;5.85;3.17;;;20.30;50.70;;;;;;5046416;28;20086;-74
2022/04/18 11:44:54;;;;;;;5.78;3.58;;;20.50;49.80;;;;;;5052044;28;20049;-74
2022/04/18 11:47:25;;;;;;;7.13;3.50;;;20.60;49.30;;;;;;5051636;28;20054;-74
2022/04/18 11:49:55;;;;;;;5.13;2.95;;;20.80;48.80;;;;;;5054235;28;20131;-74
2022/04/18 11:52:27;;;;;;;6.78;2.78;;;20.90;48.70;;;;;;5050253;28;20036;-74
2022/04/18 11:55:22;;;;;;;6.68;3.88;;;21.00;47.80;;;;;;5050757;28;20053;-74
2022/04/18 11:57:48;;;;;;;6.65;4.10;;;21.10;46.90;;;;;;5032457;28;20127;-74
2022/04/18 12:06:44;;;;;;;7.30;3.30;;;21.20;49.30;;;;;;5051019;28;20556;-74
2022/04/18 12:08:39;;;;;;;5.15;3.45;;;21.40;45.70;;;;;;5046192;28;20041;-74
2022/04/18 12:11:05;;;;;;;5.70;3.33;;;21.40;45.60;;;;;;5051801;28;20484;-74
2022/04/18 12:13:31;;;;;;;5.43;3.15;;;21.30;45.90;;;;;;5050940;28;20044;-74
2022/04/18 12:15:59;;;;;;;6.28;3.35;;;21.20;46.80;;;;;;5050976;28;20044;-74
2022/04/18 12:18:25;;;;;;;7.10;3.70;;;21.20;45.80;;;;;;5049291;28;20144;-74
2022/04/18 12:20:52;;;;;;;5.88;3.55;;;21.30;45.00;;;;;;5050731;28;20459;-74
2022/04/18 12:23:19;;;;;;;5.18;2.95;;;21.30;46.10;;;;;;5051369;28;20040;-74
2022/04/18 12:25:56;;;;;;;5.55;3.40;;;21.30;45.80;;;;;;5051273;28;20487;-74
2022/04/18 12:28:23;;;;;;;5.80;3.88;;;21.40;46.40;;;;;;5049055;28;20069;-74
2022/04/18 12:30:50;;;;;;;5.85;3.40;;;21.30;45.60;;;;;;5051241;28;20037;-74
2022/04/18 12:33:21;;;;;;;6.55;3.10;;;21.50;46.70;;;;;;5051187;28;20131;-74
2022/04/18 12:35:51;;;;;;;6.53;3.47;;;21.60;46.30;;;;;;5049644;28;20415;-73
2022/04/18 12:38:30;;;;;;;7.20;3.70;;;21.70;45.90;;;;;;5051232;28;20049;-74
2022/04/18 12:40:58;;;;;;;5.93;3.35;;;21.60;46.40;;;;;;5040088;28;20045;-74
2022/04/18 12:43:29;;;;;;;6.75;3.35;;;21.70;46.80;;;;;;5050528;28;20045;-74
2022/04/18 12:45:59;;;;;;;8.32;3.70;;;21.80;47.30;;;;;;5051242;28;20041;-74
2022/04/18 12:48:30;;;;;;;4.65;3.10;;;21.90;46.40;;;;;;5048815;28;20079;-74
2022/04/18 12:50:58;;;;;;;5.97;3.28;;;21.90;45.80;;;;;;5052132;28;20049;-74
2022/04/18 12:53:53;;;;;;;6.35;3.85;;;22.00;45.60;;;;;;5050933;28;20033;-74
2022/04/18 12:56:20;;;;;;;6.07;2.93;;;22.10;44.50;;;;;;5050333;28;20431;-74
2022/04/18 12:58:55;;;;;;;6.35;3.63;;;22.10;44.40;;;;;;5050381;28;20342;-74
2022/04/18 13:01:24;;;;;;;5.65;3.17;;;22.20;47.20;;;;;;5051225;28;20044;-74
2022/04/18 13:03:51;;;;;;;7.60;3.60;;;22.20;45.60;;;;;;5049777;28;20049;-74
2022/04/18 13:06:27;;;;;;;6.03;3.33;;;22.20;43.70;;;;;;5049572;28;20110;-74
2022/04/18 13:09:07;;;;;;;5.20;3.22;;;22.10;43.80;;;;;;5049697;28;20125;-74